Alba, Texas
Current Conditions -  °F | °C
As of 10:15 PM on Saturday 22 Nov 2014 (Local Time) from KJDD Reporting Station
Drizzle Drizzle  
Wind Chill: 61°   Ceiling: 4100
Heat Index: 61°   Visibility: 8mi
Dew Point: 61°   Wind: 3mph
Humidity: 100%   Direction: 90°E
Pressure: 29.8"   Gusts: NA
Location:  32.79°N, 95.63°W
Report Text: KJDD 230415Z AUTO 09003KT 8SM -DZ FEW027 BKN041 OVC060 16/16 A2980 RMK AO2 LTG DSNT S AND SW P0001
Loading
Personal Weather Stations






























Interactive Weather Map New forecast layout! Learn more

10-Day Weather Forecast

Advertisements
Track Severe Weather on mobile